createdAt,value
2023-01-08T00:01:38.736Z,86.29
2023-01-08T00:04:07.236Z,86.52
2023-01-08T00:06:35.802Z,86.68
2023-01-08T00:09:05.605Z,87.03
2023-01-08T00:11:33.925Z,87.13
2023-01-08T00:14:02.375Z,87.16
2023-01-08T00:16:32.073Z,87.54
2023-01-08T00:19:00.522Z,88.25
2023-01-08T00:21:29.264Z,88.20
2023-01-08T00:23:57.701Z,88.41
2023-01-08T00:26:27.439Z,88.52
2023-01-08T00:28:56.448Z,88.82
2023-01-08T00:31:25.895Z,89.34
2023-01-08T00:33:54.292Z,89.06
2023-01-08T00:36:22.800Z,89.19
2023-01-08T00:38:51.335Z,89.12
2023-01-08T00:41:19.877Z,89.36
2023-01-08T00:43:49.637Z,88.85
2023-01-08T00:46:18.042Z,88.28
2023-01-08T00:48:46.500Z,88.13
2023-01-08T00:51:14.933Z,88.04
2023-01-08T00:53:43.251Z,87.89
2023-01-08T00:56:12.336Z,87.94
2023-01-08T00:58:40.707Z,87.89
2023-01-08T01:01:15.771Z,87.67
2023-01-08T01:03:45.049Z,87.58
2023-01-08T01:06:15.697Z,87.62
2023-01-08T01:08:45.099Z,87.54
2023-01-08T01:11:26.444Z,87.11
2023-01-08T01:13:56.892Z,87.29
2023-01-08T01:16:27.270Z,87.46
2023-01-08T01:18:57.632Z,88.02
2023-01-08T01:21:29.267Z,88.16
2023-01-08T01:24:00.568Z,88.43
2023-01-08T01:26:29.407Z,88.29
2023-01-08T01:28:59.321Z,88.02
2023-01-08T01:31:31.544Z,88.09
2023-01-08T01:34:00.418Z,88.05
2023-01-08T01:36:28.859Z,88.21
2023-01-08T01:38:59.038Z,88.27
2023-01-08T01:41:30.744Z,88.59
2023-01-08T01:44:01.011Z,88.81
2023-01-08T01:46:38.126Z,89.20
2023-01-08T01:49:12.073Z,89.19
2023-01-08T01:51:46.102Z,89.18
2023-01-08T01:54:14.858Z,89.28
2023-01-08T01:56:44.428Z,89.25
2023-01-08T01:59:14.080Z,89.58
2023-01-08T02:01:44.705Z,89.82
2023-01-08T02:04:13.610Z,90.00
2023-01-08T02:06:47.741Z,89.89
2023-01-08T02:09:24.836Z,90.04
2023-01-08T02:12:15.977Z,90.04
2023-01-08T02:15:02.939Z,89.97
2023-01-08T02:17:41.429Z,90.25
2023-01-08T02:20:13.898Z,89.94
2023-01-08T02:23:06.559Z,90.06
2023-01-08T02:26:03.195Z,89.88
2023-01-08T02:28:33.833Z,89.70
2023-01-08T02:31:02.283Z,89.03
2023-01-08T02:33:31.386Z,88.14
2023-01-08T02:36:25.719Z,86.98
2023-01-08T02:39:16.897Z,86.44
2023-01-08T02:41:58.559Z,85.67
2023-01-08T02:44:37.381Z,85.38
2023-01-08T02:47:09.642Z,85.53
2023-01-08T02:49:43.047Z,84.91
2023-01-08T02:52:14.216Z,85.18
2023-01-08T02:54:45.665Z,84.97
2023-01-08T02:57:17.817Z,84.95
2023-01-08T02:59:49.472Z,84.54
2023-01-08T03:02:18.994Z,84.34
2023-01-08T03:04:55.102Z,84.08
2023-01-08T03:07:23.503Z,83.88
2023-01-08T03:09:52.890Z,83.58
2023-01-08T03:12:26.659Z,83.45
2023-01-08T03:15:00.798Z,83.37
2023-01-08T03:17:34.254Z,83.05
2023-01-08T03:20:08.441Z,82.94
2023-01-08T03:22:41.525Z,82.72
2023-01-08T03:25:11.252Z,82.51
2023-01-08T03:27:46.912Z,82.47
2023-01-08T03:30:17.591Z,82.43
2023-01-08T03:32:46.902Z,82.46
2023-01-08T03:35:20.487Z,82.57
2023-01-08T03:37:57.161Z,82.64
2023-01-08T03:40:30.708Z,82.40
2023-01-08T03:43:01.091Z,82.46
2023-01-08T03:45:33.063Z,82.55
2023-01-08T03:48:03.790Z,82.71
2023-01-08T03:50:32.668Z,82.77
2023-01-08T03:53:01.170Z,82.86
2023-01-08T03:55:29.590Z,82.90
2023-01-08T03:57:59.262Z,82.64
2023-01-08T04:00:27.880Z,82.75
2023-01-08T04:02:56.333Z,82.59
2023-01-08T04:05:24.713Z,82.55
2023-01-08T04:07:56.190Z,82.65
2023-01-08T04:10:24.658Z,82.79
2023-01-08T04:12:53.117Z,83.20
2023-01-08T04:15:22.822Z,83.04
2023-01-08T04:17:51.134Z,83.42
2023-01-08T04:20:19.649Z,83.61
2023-01-08T04:22:47.960Z,83.87
2023-01-08T04:25:16.477Z,84.01
2023-01-08T04:27:44.743Z,84.57
2023-01-08T04:30:14.119Z,85.12
2023-01-08T04:32:43.774Z,85.38
2023-01-08T04:35:12.125Z,85.64
2023-01-08T04:37:40.396Z,85.56
2023-01-08T04:40:10.448Z,85.78
2023-01-08T04:42:38.949Z,85.99
2023-01-08T04:45:09.116Z,86.11
2023-01-08T04:47:37.489Z,86.16
2023-01-08T04:50:08.508Z,86.38
2023-01-08T04:52:36.997Z,86.54
2023-01-08T04:55:06.459Z,86.66
2023-01-08T04:57:34.916Z,86.61
2023-01-08T05:00:03.276Z,86.86
2023-01-08T05:02:31.782Z,86.29
2023-01-08T05:05:00.184Z,86.32
2023-01-08T05:07:29.877Z,85.73
2023-01-08T05:09:58.121Z,85.38
2023-01-08T05:12:26.500Z,85.19
2023-01-08T05:14:54.820Z,85.10
2023-01-08T05:17:23.206Z,85.25
2023-01-08T05:19:51.515Z,86.15
2023-01-08T05:22:19.867Z,86.40
2023-01-08T05:24:49.524Z,86.55
2023-01-08T05:27:17.869Z,86.34
2023-01-08T05:29:46.366Z,86.29
2023-01-08T05:32:18.508Z,85.80
2023-01-08T05:34:47.428Z,85.86
2023-01-08T05:37:15.693Z,85.44
2023-01-08T05:39:43.990Z,85.49
2023-01-08T05:42:13.605Z,85.14
2023-01-08T05:44:41.932Z,85.07
2023-01-08T05:47:10.274Z,84.90
2023-01-08T05:49:38.619Z,85.01
2023-01-08T05:52:06.956Z,85.00
2023-01-08T05:54:35.279Z,85.20
2023-01-08T05:57:03.586Z,85.39
2023-01-08T05:59:33.283Z,85.62
2023-01-08T06:02:01.568Z,85.60
2023-01-08T06:04:30.013Z,86.02
2023-01-08T06:06:58.355Z,85.94
2023-01-08T06:09:26.736Z,85.87
2023-01-08T06:11:55.079Z,86.05
2023-01-08T06:14:23.455Z,85.98
2023-01-08T06:16:53.178Z,86.04
2023-01-08T06:19:21.577Z,85.93
2023-01-08T06:21:49.950Z,86.10
2023-01-08T06:24:18.329Z,86.54
2023-01-08T06:26:46.651Z,86.43
2023-01-08T06:29:15.005Z,86.41
2023-01-08T06:31:43.442Z,86.54
2023-01-08T06:34:13.214Z,86.73
2023-01-08T06:36:41.563Z,86.77
2023-01-08T06:39:10.510Z,86.96
2023-01-08T06:41:38.807Z,86.86
2023-01-08T06:44:07.095Z,86.89
2023-01-08T06:46:38.344Z,86.84
2023-01-08T06:49:06.764Z,86.56
2023-01-08T06:51:37.214Z,85.94
2023-01-08T06:54:05.778Z,86.14
2023-01-08T06:56:45.319Z,86.10
2023-01-08T06:59:20.897Z,85.87
2023-01-08T07:01:49.868Z,85.61
2023-01-08T07:04:18.862Z,85.43
2023-01-08T07:06:48.820Z,85.71
2023-01-08T07:09:17.623Z,85.18
2023-01-08T07:11:45.923Z,85.42
2023-01-08T07:14:14.269Z,85.79
2023-01-08T07:16:42.703Z,85.79
2023-01-08T07:19:10.985Z,85.40
2023-01-08T07:21:39.298Z,85.35
2023-01-08T07:24:09.755Z,85.97
2023-01-08T07:26:39.610Z,85.70
2023-01-08T07:29:08.186Z,86.59
2023-01-08T07:31:36.620Z,86.06
2023-01-08T07:34:05.081Z,86.01
2023-01-08T07:36:33.439Z,86.52
2023-01-08T07:39:01.839Z,86.59
2023-01-08T07:41:31.483Z,86.34
2023-01-08T07:43:59.782Z,86.43
2023-01-08T07:46:28.206Z,86.34
2023-01-08T07:48:58.060Z,86.72
2023-01-08T07:51:26.376Z,86.71
2023-01-08T07:53:56.243Z,86.65
2023-01-08T07:56:25.913Z,86.74
2023-01-08T07:58:55.684Z,87.06
2023-01-08T08:01:26.269Z,87.15
2023-01-08T08:03:54.508Z,87.19
2023-01-08T08:06:22.759Z,87.84
2023-01-08T08:08:51.121Z,87.44
2023-01-08T08:11:19.514Z,87.65
2023-01-08T08:13:47.894Z,87.42
2023-01-08T08:16:17.626Z,87.96
2023-01-08T08:18:46.048Z,88.34
2023-01-08T08:21:14.316Z,88.29
2023-01-08T08:23:42.626Z,88.58
2023-01-08T08:26:10.959Z,88.36
2023-01-08T08:28:39.334Z,88.78
2023-01-08T08:31:07.696Z,88.88
2023-01-08T08:33:37.385Z,88.78
2023-01-08T08:36:06.536Z,88.91
2023-01-08T08:38:35.110Z,89.65
2023-01-08T08:41:03.455Z,89.74
2023-01-08T08:43:31.731Z,89.02
2023-01-08T08:46:00.076Z,88.14
2023-01-08T08:48:28.373Z,87.08
2023-01-08T08:50:58.100Z,86.10
2023-01-08T08:53:27.696Z,85.03
2023-01-08T08:55:56.148Z,83.84
2023-01-08T08:58:24.451Z,82.83
2023-01-08T09:00:52.722Z,82.27
2023-01-08T09:03:21.288Z,81.41
2023-01-08T09:05:49.581Z,80.76
2023-01-08T09:08:19.311Z,79.88
2023-01-08T09:10:47.758Z,78.96
2023-01-08T09:13:16.077Z,78.17
2023-01-08T09:15:44.553Z,77.26
2023-01-08T09:18:15.112Z,77.26
2023-01-08T09:20:44.323Z,76.65
2023-01-08T09:23:12.654Z,76.41
2023-01-08T09:25:42.361Z,76.24
2023-01-08T09:28:13.182Z,75.94
2023-01-08T09:30:41.905Z,75.49
2023-01-08T09:33:11.592Z,75.38
2023-01-08T09:35:39.950Z,74.82
2023-01-08T09:38:08.209Z,74.75
2023-01-08T09:40:43.456Z,74.44
2023-01-08T09:43:18.503Z,74.49
2023-01-08T09:45:52.961Z,74.73
2023-01-08T09:48:27.124Z,74.35
2023-01-08T09:50:55.573Z,74.70
2023-01-08T09:53:24.343Z,74.56
2023-01-08T09:56:14.978Z,73.97
2023-01-08T09:58:46.323Z,74.01
2023-01-08T10:01:17.385Z,73.89
2023-01-08T10:03:49.241Z,74.75
2023-01-08T10:06:18.984Z,74.84
2023-01-08T10:08:47.730Z,75.04
2023-01-08T10:11:17.726Z,75.19
2023-01-08T10:13:52.241Z,75.09
2023-01-08T10:16:30.395Z,75.37
2023-01-08T10:19:00.266Z,76.31
2023-01-08T10:21:33.565Z,77.43
2023-01-08T10:24:01.879Z,78.29
2023-01-08T10:26:33.648Z,78.35
2023-01-08T10:29:12.907Z,77.86
2023-01-08T10:31:48.848Z,77.68
2023-01-08T10:34:32.873Z,77.57
2023-01-08T10:37:01.587Z,76.81
2023-01-08T10:39:33.154Z,76.80
2023-01-08T10:42:08.162Z,76.20
2023-01-08T10:44:36.990Z,75.68
2023-01-08T10:47:07.169Z,74.92
2023-01-08T10:49:39.894Z,75.14
2023-01-08T10:52:29.305Z,75.17
2023-01-08T10:54:57.685Z,75.81
2023-01-08T10:57:30.905Z,76.30
2023-01-08T10:59:59.541Z,76.59
2023-01-08T11:02:38.396Z,76.46
2023-01-08T11:05:11.288Z,75.78
2023-01-08T11:07:41.056Z,75.14
2023-01-08T11:10:24.038Z,75.54
2023-01-08T11:12:59.445Z,76.06
2023-01-08T11:15:35.510Z,76.43
2023-01-08T11:18:12.680Z,76.44
2023-01-08T11:20:42.110Z,77.03
2023-01-08T11:23:19.957Z,77.13
2023-01-08T11:25:58.404Z,76.68
2023-01-08T11:28:45.335Z,76.07
2023-01-08T11:31:20.585Z,75.64
2023-01-08T11:33:52.259Z,75.49
2023-01-08T11:36:27.487Z,75.37
2023-01-08T11:38:55.887Z,76.18
2023-01-08T11:41:52.579Z,76.28
2023-01-08T11:44:36.646Z,77.16
2023-01-08T11:47:16.137Z,77.10
2023-01-08T11:50:07.585Z,76.96
2023-01-08T11:52:47.623Z,76.77
2023-01-08T11:55:27.857Z,76.85
2023-01-08T11:58:11.537Z,76.64
2023-01-08T12:01:14.706Z,76.14
2023-01-08T12:03:48.674Z,76.38
2023-01-08T12:06:31.040Z,75.39
2023-01-08T12:09:14.099Z,75.67
2023-01-08T12:11:52.105Z,76.09
2023-01-08T12:14:41.321Z,76.20
2023-01-08T12:17:38.868Z,76.32
2023-01-08T12:20:25.256Z,76.34
2023-01-08T12:23:09.309Z,76.71
2023-01-08T12:25:56.307Z,76.86
2023-01-08T12:28:47.812Z,76.91
2023-01-08T12:31:38.641Z,77.27
2023-01-08T12:34:12.496Z,76.83
2023-01-08T12:36:46.708Z,77.19
2023-01-08T12:39:28.660Z,77.01
2023-01-08T12:42:07.294Z,76.92
2023-01-08T12:44:37.394Z,76.31
2023-01-08T12:47:07.675Z,76.42
2023-01-08T12:49:44.378Z,76.39
2023-01-08T12:52:21.899Z,76.24
2023-01-08T12:54:56.562Z,76.36
2023-01-08T12:57:32.150Z,76.21
2023-01-08T13:00:07.771Z,75.04
2023-01-08T13:02:45.648Z,74.93
2023-01-08T13:05:31.838Z,74.08
2023-01-08T13:08:04.320Z,73.40
2023-01-08T13:10:38.997Z,73.26
2023-01-08T13:13:09.588Z,73.04
2023-01-08T13:15:37.952Z,72.49
2023-01-08T13:18:17.876Z,72.13
2023-01-08T13:20:57.742Z,71.75
2023-01-08T13:23:28.888Z,71.58
2023-01-08T13:25:59.567Z,72.94
2023-01-08T13:28:32.000Z,73.58
2023-01-08T13:31:11.288Z,72.88
2023-01-08T13:33:43.174Z,72.91
2023-01-08T13:36:33.510Z,72.85
2023-01-08T13:39:06.323Z,73.89
2023-01-08T13:41:37.216Z,74.02
2023-01-08T13:44:08.405Z,74.20
2023-01-08T13:46:40.971Z,74.29
2023-01-08T13:49:16.264Z,74.54
2023-01-08T13:51:47.790Z,74.87
2023-01-08T13:54:32.535Z,75.06
2023-01-08T13:57:08.439Z,75.51
2023-01-08T13:59:41.837Z,76.00
2023-01-08T14:02:32.642Z,75.66
2023-01-08T14:05:02.747Z,75.66
2023-01-08T14:07:32.513Z,75.90
2023-01-08T14:10:10.099Z,76.02
2023-01-08T14:12:38.505Z,75.88
2023-01-08T14:15:11.395Z,75.48
2023-01-08T14:17:39.975Z,75.19
2023-01-08T14:20:13.401Z,75.58
2023-01-08T14:22:44.076Z,75.65
2023-01-08T14:25:20.473Z,76.11
2023-01-08T14:28:03.570Z,75.94
2023-01-08T14:30:33.337Z,76.24
2023-01-08T14:33:03.023Z,76.49
2023-01-08T14:35:35.271Z,76.66
2023-01-08T14:38:05.759Z,76.58
2023-01-08T14:40:37.984Z,76.73
2023-01-08T14:43:10.954Z,76.71
2023-01-08T14:45:41.407Z,77.50
2023-01-08T14:48:19.548Z,77.53
2023-01-08T14:51:02.816Z,78.15
2023-01-08T14:53:36.675Z,77.83
2023-01-08T14:56:07.048Z,77.83
2023-01-08T14:58:39.473Z,77.64
2023-01-08T15:01:17.064Z,77.71
2023-01-08T15:03:47.478Z,77.76
2023-01-08T15:06:26.274Z,77.77
2023-01-08T15:08:56.054Z,77.24
2023-01-08T15:11:26.543Z,77.39
2023-01-08T15:13:57.227Z,77.05
2023-01-08T15:16:29.593Z,76.80
2023-01-08T15:19:05.993Z,77.15
2023-01-08T15:21:36.143Z,76.96
2023-01-08T15:24:08.273Z,77.36
2023-01-08T15:26:36.700Z,77.54
2023-01-08T15:29:07.681Z,77.29
2023-01-08T15:31:48.487Z,77.03
2023-01-08T15:34:19.885Z,76.98
2023-01-08T15:36:48.634Z,77.12
2023-01-08T15:39:18.395Z,77.39
2023-01-08T15:42:09.691Z,77.32
2023-01-08T15:44:38.060Z,77.66
2023-01-08T15:47:06.507Z,77.69
2023-01-08T15:49:34.839Z,77.69
2023-01-08T15:52:03.193Z,78.12
2023-01-08T15:54:32.929Z,78.08
2023-01-08T15:57:01.341Z,78.16
2023-01-08T15:59:30.087Z,78.23
2023-01-08T16:01:58.459Z,77.96
2023-01-08T16:04:27.040Z,78.52
2023-01-08T16:06:55.416Z,78.80
2023-01-08T16:09:23.857Z,78.80
2023-01-08T16:11:53.653Z,78.74
2023-01-08T16:14:22.127Z,78.80
2023-01-08T16:16:50.426Z,78.73
2023-01-08T16:19:19.043Z,78.55
2023-01-08T16:21:50.137Z,78.75
2023-01-08T16:24:18.545Z,78.60
2023-01-08T16:26:46.817Z,78.27
2023-01-08T16:29:16.784Z,78.80
2023-01-08T16:31:47.636Z,78.60
2023-01-08T16:34:16.555Z,78.18
2023-01-08T16:36:44.952Z,78.49
2023-01-08T16:39:13.353Z,78.22
2023-01-08T16:41:41.801Z,77.86
2023-01-08T16:44:22.026Z,77.77
2023-01-08T16:46:51.228Z,77.70
2023-01-08T16:49:19.597Z,77.69
2023-01-08T16:51:48.203Z,77.78
2023-01-08T16:54:17.859Z,77.70
2023-01-08T16:56:46.600Z,77.81
2023-01-08T16:59:22.743Z,77.73
2023-01-08T17:01:53.519Z,77.73
2023-01-08T17:04:22.291Z,78.06
2023-01-08T17:06:50.775Z,78.26
2023-01-08T17:09:19.218Z,78.11
2023-01-08T17:11:48.007Z,78.20
2023-01-08T17:14:16.650Z,78.53
2023-01-08T17:16:45.898Z,78.31
2023-01-08T17:19:16.744Z,78.41
2023-01-08T17:21:45.872Z,78.37
2023-01-08T17:24:14.304Z,78.38
2023-01-08T17:26:42.732Z,78.45
2023-01-08T17:29:11.113Z,78.47
2023-01-08T17:31:40.682Z,78.71
2023-01-08T17:34:13.349Z,78.86
2023-01-08T17:36:43.573Z,79.00
2023-01-08T17:39:13.442Z,78.81
2023-01-08T17:41:59.082Z,79.27
2023-01-08T17:44:28.024Z,79.28
2023-01-08T17:46:56.339Z,79.61
2023-01-08T17:49:24.913Z,79.58
2023-01-08T17:51:54.916Z,79.67
2023-01-08T17:54:24.150Z,79.84
2023-01-08T17:56:53.633Z,79.69
2023-01-08T17:59:22.871Z,80.22
2023-01-08T18:01:53.967Z,80.92
2023-01-08T18:04:22.467Z,81.03
2023-01-08T18:06:50.752Z,80.73
2023-01-08T18:09:21.393Z,80.78
2023-01-08T18:11:49.813Z,80.28
2023-01-08T18:14:18.307Z,80.68
2023-01-08T18:16:48.015Z,80.67
2023-01-08T18:19:16.812Z,80.36
2023-01-08T18:21:45.714Z,80.64
2023-01-08T18:24:14.857Z,81.18
2023-01-08T18:26:46.534Z,81.20
2023-01-08T18:29:15.011Z,81.02
2023-01-08T18:31:45.842Z,81.08
2023-01-08T18:34:15.218Z,81.14
2023-01-08T18:36:43.831Z,81.55
2023-01-08T18:39:13.570Z,81.38
2023-01-08T18:41:59.932Z,81.90
2023-01-08T18:44:29.858Z,82.11
2023-01-08T18:46:58.231Z,82.12
2023-01-08T18:49:27.541Z,82.10
2023-01-08T18:51:55.867Z,82.26
2023-01-08T18:54:24.295Z,82.05
2023-01-08T18:56:52.665Z,81.82
2023-01-08T18:59:20.979Z,81.57
2023-01-08T19:01:52.348Z,81.49
2023-01-08T19:04:20.871Z,81.24
2023-01-08T19:06:49.144Z,80.97
2023-01-08T19:09:19.591Z,80.84
2023-01-08T19:11:47.984Z,80.69
2023-01-08T19:14:16.673Z,80.35
2023-01-08T19:16:51.171Z,80.09
2023-01-08T19:19:21.206Z,79.85
2023-01-08T19:21:49.914Z,79.71
2023-01-08T19:24:18.267Z,79.70
2023-01-08T19:26:46.693Z,79.38
2023-01-08T19:29:15.078Z,79.11
2023-01-08T19:31:43.621Z,79.09
2023-01-08T19:34:13.720Z,79.11
2023-01-08T19:36:43.872Z,78.87
2023-01-08T19:39:12.323Z,79.12
2023-01-08T19:41:58.369Z,78.90
2023-01-08T19:44:26.761Z,78.95
2023-01-08T19:46:55.133Z,78.57
2023-01-08T19:49:24.577Z,78.39
2023-01-08T19:51:54.296Z,78.34
2023-01-08T19:54:25.742Z,78.32
2023-01-08T19:56:54.703Z,78.60
2023-01-08T19:59:23.183Z,78.58
2023-01-08T20:01:51.802Z,78.80
2023-01-08T20:04:20.323Z,79.04
2023-01-08T20:06:48.633Z,79.36
2023-01-08T20:09:18.456Z,79.35
2023-01-08T20:11:46.766Z,79.33
2023-01-08T20:14:15.075Z,79.44
2023-01-08T20:16:43.797Z,79.80
2023-01-08T20:19:12.107Z,79.86
2023-01-08T20:21:41.672Z,80.08
2023-01-08T20:24:13.835Z,80.33
2023-01-08T20:26:45.104Z,80.32
2023-01-08T20:29:14.643Z,80.48
2023-01-08T20:31:44.202Z,80.77
2023-01-08T20:34:16.389Z,81.34
2023-01-08T20:36:46.382Z,82.39
2023-01-08T20:39:18.400Z,82.86
2023-01-08T20:42:00.884Z,83.96
2023-01-08T20:44:32.772Z,85.16
2023-01-08T20:47:01.889Z,86.23
2023-01-08T20:49:30.301Z,86.99
2023-01-08T20:52:00.301Z,87.29
2023-01-08T20:54:30.238Z,87.91
2023-01-08T20:57:01.462Z,88.28
2023-01-08T20:59:30.652Z,88.30
2023-01-08T21:01:59.075Z,88.51
2023-01-08T21:04:27.779Z,89.20
2023-01-08T21:06:56.537Z,89.86
2023-01-08T21:09:24.900Z,90.52
2023-01-08T21:11:53.340Z,90.96
2023-01-08T21:14:23.108Z,91.12
2023-01-08T21:16:51.519Z,91.44
2023-01-08T21:19:20.396Z,91.37
2023-01-08T21:21:48.762Z,91.05
2023-01-08T21:24:17.155Z,91.39
2023-01-08T21:26:47.108Z,91.77
2023-01-08T21:29:16.968Z,92.10
2023-01-08T21:31:46.885Z,92.34
2023-01-08T21:34:15.288Z,92.23
2023-01-08T21:36:43.770Z,92.34
2023-01-08T21:39:12.747Z,92.23
2023-01-08T21:41:58.684Z,92.47
2023-01-08T21:44:45.302Z,92.53
2023-01-08T21:47:18.556Z,92.56
2023-01-08T21:49:47.727Z,92.44
2023-01-08T21:52:34.075Z,92.42
2023-01-08T21:55:02.519Z,92.47
2023-01-08T21:57:30.979Z,91.66
2023-01-08T21:59:59.442Z,91.08
2023-01-08T22:02:29.324Z,91.16
2023-01-08T22:04:58.392Z,90.37
2023-01-08T22:07:27.379Z,90.23
2023-01-08T22:09:55.970Z,89.38
2023-01-08T22:12:25.568Z,89.00
2023-01-08T22:14:54.413Z,88.34
2023-01-08T22:17:24.494Z,88.58
2023-01-08T22:19:54.495Z,88.54
2023-01-08T22:22:23.117Z,88.78
2023-01-08T22:24:52.401Z,87.75
2023-01-08T22:27:21.509Z,87.54
2023-01-08T22:29:50.147Z,86.85
2023-01-08T22:32:18.620Z,86.85
2023-01-08T22:34:47.065Z,86.57
2023-01-08T22:37:19.030Z,86.45
2023-01-08T22:39:47.462Z,85.82
2023-01-08T22:42:16.149Z,85.89
2023-01-08T22:44:44.649Z,85.83
2023-01-08T22:47:12.916Z,85.91
2023-01-08T22:49:41.305Z,86.29
2023-01-08T22:52:10.146Z,86.06
2023-01-08T22:54:40.286Z,85.86
2023-01-08T22:57:09.512Z,85.74
2023-01-08T22:59:38.175Z,85.75
2023-01-08T23:02:06.699Z,85.95
2023-01-08T23:04:35.155Z,85.95
2023-01-08T23:07:03.579Z,86.03
2023-01-08T23:09:32.040Z,85.86
2023-01-08T23:12:01.787Z,85.92
2023-01-08T23:14:30.134Z,85.78
2023-01-08T23:16:58.501Z,86.13
2023-01-08T23:19:26.943Z,85.68
2023-01-08T23:21:55.310Z,85.97
2023-01-08T23:24:23.660Z,86.21
2023-01-08T23:26:52.188Z,85.95
2023-01-08T23:29:21.835Z,85.93
2023-01-08T23:31:50.375Z,86.01
2023-01-08T23:34:18.783Z,85.69
2023-01-08T23:36:47.112Z,85.61
2023-01-08T23:39:15.441Z,85.85
2023-01-08T23:41:43.818Z,85.65
2023-01-08T23:44:14.924Z,85.92
2023-01-08T23:46:44.638Z,86.05
2023-01-08T23:49:12.943Z,86.29
2023-01-08T23:51:42.687Z,86.21
2023-01-08T23:54:11.566Z,85.98
2023-01-08T23:56:40.100Z,86.47
2023-01-08T23:59:09.233Z,86.29
